sensor_id;sensor_type;location;lat;lon;timestamp;pressure;altitude;pressure_sealevel;temperature;humidity
70916;BME280;58557;50.982;-3.222;2023-10-08T00:00:55;101792.05;;;19.47;48.15
70916;BME280;58557;50.982;-3.222;2023-10-08T00:03:21;101796.93;;;19.09;49.02
70916;BME280;58557;50.982;-3.222;2023-10-08T00:05:46;101793.99;;;17.65;52.23
70916;BME280;58557;50.982;-3.222;2023-10-08T00:08:11;101789.25;;;17.30;55.46
70916;BME280;58557;50.982;-3.222;2023-10-08T00:10:37;101789.74;;;15.43;62.34
70916;BME280;58557;50.982;-3.222;2023-10-08T00:13:01;101786.81;;;17.01;58.82
70916;BME280;58557;50.982;-3.222;2023-10-08T00:15:27;101785.19;;;16.96;56.47
70916;BME280;58557;50.982;-3.222;2023-10-08T00:17:52;101788.49;;;18.13;54.12
70916;BME280;58557;50.982;-3.222;2023-10-08T00:20:17;101783.03;;;16.25;57.29
70916;BME280;58557;50.982;-3.222;2023-10-08T00:22:43;101786.15;;;16.56;60.54
70916;BME280;58557;50.982;-3.222;2023-10-08T00:25:08;101788.78;;;15.24;66.44
70916;BME280;58557;50.982;-3.222;2023-10-08T00:27:33;101788.43;;;14.47;67.15
70916;BME280;58557;50.982;-3.222;2023-10-08T00:29:58;101787.87;;;14.51;67.06
70916;BME280;58557;50.982;-3.222;2023-10-08T00:32:24;101793.61;;;13.29;72.49
70916;BME280;58557;50.982;-3.222;2023-10-08T00:34:49;101788.97;;;15.25;68.59
70916;BME280;58557;50.982;-3.222;2023-10-08T00:37:15;101789.59;;;14.97;66.63
70916;BME280;58557;50.982;-3.222;2023-10-08T00:39:41;101787.41;;;15.06;66.95
70916;BME280;58557;50.982;-3.222;2023-10-08T00:42:07;101786.79;;;14.61;67.66
70916;BME280;58557;50.982;-3.222;2023-10-08T00:44:31;101786.91;;;14.86;66.33
70916;BME280;58557;50.982;-3.222;2023-10-08T00:46:57;101790.07;;;17.17;59.43
70916;BME280;58557;50.982;-3.222;2023-10-08T00:49:23;101787.91;;;17.67;58.38
70916;BME280;58557;50.982;-3.222;2023-10-08T00:51:48;101786.82;;;18.13;55.99
70916;BME280;58557;50.982;-3.222;2023-10-08T00:54:13;101785.75;;;15.56;63.15
70916;BME280;58557;50.982;-3.222;2023-10-08T00:56:38;101784.53;;;15.74;62.55
70916;BME280;58557;50.982;-3.222;2023-10-08T00:59:04;101783.25;;;15.22;63.41
70916;BME280;58557;50.982;-3.222;2023-10-08T01:01:29;101788.36;;;16.25;61.15
70916;BME280;58557;50.982;-3.222;2023-10-08T01:03:55;101791.96;;;15.88;62.84
70916;BME280;58557;50.982;-3.222;2023-10-08T01:06:21;101795.72;;;14.70;66.40
70916;BME280;58557;50.982;-3.222;2023-10-08T01:08:46;101794.41;;;15.86;64.26
70916;BME280;58557;50.982;-3.222;2023-10-08T01:11:17;101796.88;;;14.20;69.13
70916;BME280;58557;50.982;-3.222;2023-10-08T01:13:36;101796.32;;;13.68;69.34
70916;BME280;58557;50.982;-3.222;2023-10-08T01:16:02;101794.67;;;14.25;69.00
70916;BME280;58557;50.982;-3.222;2023-10-08T01:18:28;101792.61;;;14.49;67.40
70916;BME280;58557;50.982;-3.222;2023-10-08T01:20:53;101794.82;;;14.46;67.27
70916;BME280;58557;50.982;-3.222;2023-10-08T01:23:19;101797.30;;;16.93;61.16
70916;BME280;58557;50.982;-3.222;2023-10-08T01:25:44;101802.92;;;17.07;57.42
70916;BME280;58557;50.982;-3.222;2023-10-08T01:28:09;101807.51;;;16.29;57.73
70916;BME280;58557;50.982;-3.222;2023-10-08T01:30:34;101810.49;;;17.33;56.78
70916;BME280;58557;50.982;-3.222;2023-10-08T01:33:00;101809.10;;;17.51;54.96
70916;BME280;58557;50.982;-3.222;2023-10-08T01:35:25;101811.60;;;17.37;56.28
70916;BME280;58557;50.982;-3.222;2023-10-08T01:37:51;101803.90;;;17.74;54.45
70916;BME280;58557;50.982;-3.222;2023-10-08T01:40:16;101802.45;;;16.85;56.19
70916;BME280;58557;50.982;-3.222;2023-10-08T01:42:41;101798.35;;;15.90;59.14
70916;BME280;58557;50.982;-3.222;2023-10-08T01:45:07;101790.31;;;17.29;57.50
70916;BME280;58557;50.982;-3.222;2023-10-08T01:47:32;101789.29;;;15.54;59.63
70916;BME280;58557;50.982;-3.222;2023-10-08T01:49:57;101787.52;;;16.48;58.73
70916;BME280;58557;50.982;-3.222;2023-10-08T01:52:22;101785.26;;;16.38;58.15
70916;BME280;58557;50.982;-3.222;2023-10-08T01:54:47;101783.10;;;17.32;54.92
70916;BME280;58557;50.982;-3.222;2023-10-08T01:57:13;101783.43;;;17.43;54.66
70916;BME280;58557;50.982;-3.222;2023-10-08T01:59:38;101787.14;;;18.03;52.83
70916;BME280;58557;50.982;-3.222;2023-10-08T02:02:04;101781.84;;;18.01;51.43
70916;BME280;58557;50.982;-3.222;2023-10-08T02:04:29;101777.51;;;17.35;53.76
70916;BME280;58557;50.982;-3.222;2023-10-08T02:06:55;101775.03;;;17.35;53.70
70916;BME280;58557;50.982;-3.222;2023-10-08T02:09:20;101782.43;;;17.86;52.89
70916;BME280;58557;50.982;-3.222;2023-10-08T02:11:46;101784.73;;;17.67;52.88
70916;BME280;58557;50.982;-3.222;2023-10-08T02:14:10;101779.53;;;17.71;54.02
70916;BME280;58557;50.982;-3.222;2023-10-08T02:16:36;101779.25;;;17.44;53.71
70916;BME280;58557;50.982;-3.222;2023-10-08T02:19:01;101772.05;;;17.29;53.87
70916;BME280;58557;50.982;-3.222;2023-10-08T02:21:26;101768.47;;;17.15;54.23
70916;BME280;58557;50.982;-3.222;2023-10-08T02:23:52;101767.86;;;16.59;55.97
70916;BME280;58557;50.982;-3.222;2023-10-08T02:26:17;101761.75;;;16.68;55.49
70916;BME280;58557;50.982;-3.222;2023-10-08T02:28:43;101760.99;;;17.34;54.44
70916;BME280;58557;50.982;-3.222;2023-10-08T02:31:08;101763.31;;;18.14;52.55
70916;BME280;58557;50.982;-3.222;2023-10-08T02:33:34;101754.50;;;17.99;53.10
70916;BME280;58557;50.982;-3.222;2023-10-08T02:36:00;101750.44;;;18.04;51.65
70916;BME280;58557;50.982;-3.222;2023-10-08T02:38:25;101749.73;;;18.10;51.11
70916;BME280;58557;50.982;-3.222;2023-10-08T02:40:51;101747.66;;;18.11;51.97
70916;BME280;58557;50.982;-3.222;2023-10-08T02:43:17;101749.87;;;18.20;50.80
70916;BME280;58557;50.982;-3.222;2023-10-08T02:45:43;101754.92;;;18.25;50.39
70916;BME280;58557;50.982;-3.222;2023-10-08T02:48:08;101751.73;;;18.56;49.63
70916;BME280;58557;50.982;-3.222;2023-10-08T02:50:32;101754.77;;;18.58;48.91
70916;BME280;58557;50.982;-3.222;2023-10-08T02:52:58;101752.31;;;18.79;48.16
70916;BME280;58557;50.982;-3.222;2023-10-08T02:55:23;101753.15;;;18.45;48.79
70916;BME280;58557;50.982;-3.222;2023-10-08T02:57:49;101752.65;;;18.12;48.96
70916;BME280;58557;50.982;-3.222;2023-10-08T03:00:15;101752.50;;;18.44;49.06
70916;BME280;58557;50.982;-3.222;2023-10-08T03:02:40;101749.02;;;18.44;48.69
70916;BME280;58557;50.982;-3.222;2023-10-08T03:05:06;101748.84;;;18.84;47.77
70916;BME280;58557;50.982;-3.222;2023-10-08T03:07:31;101748.45;;;17.51;49.62
70916;BME280;58557;50.982;-3.222;2023-10-08T03:09:57;101749.27;;;18.15;48.32
70916;BME280;58557;50.982;-3.222;2023-10-08T03:12:22;101747.20;;;18.73;48.16
70916;BME280;58557;50.982;-3.222;2023-10-08T03:14:47;101747.81;;;17.86;48.87
70916;BME280;58557;50.982;-3.222;2023-10-08T03:17:13;101749.78;;;17.77;49.40
70916;BME280;58557;50.982;-3.222;2023-10-08T03:19:38;101748.66;;;18.50;48.51
70916;BME280;58557;50.982;-3.222;2023-10-08T03:22:03;101752.72;;;18.12;48.90
70916;BME280;58557;50.982;-3.222;2023-10-08T03:24:28;101749.43;;;18.05;48.41
70916;BME280;58557;50.982;-3.222;2023-10-08T03:26:54;101748.99;;;18.53;47.26
70916;BME280;58557;50.982;-3.222;2023-10-08T03:29:19;101749.27;;;18.20;47.51
70916;BME280;58557;50.982;-3.222;2023-10-08T03:31:45;101750.25;;;17.87;47.75
70916;BME280;58557;50.982;-3.222;2023-10-08T03:34:11;101748.64;;;18.06;48.17
70916;BME280;58557;50.982;-3.222;2023-10-08T03:36:36;101748.74;;;18.39;47.84
70916;BME280;58557;50.982;-3.222;2023-10-08T03:39:02;101749.56;;;18.27;47.19
70916;BME280;58557;50.982;-3.222;2023-10-08T03:41:28;101752.05;;;18.22;47.51
70916;BME280;58557;50.982;-3.222;2023-10-08T03:43:54;101747.10;;;18.75;46.36
70916;BME280;58557;50.982;-3.222;2023-10-08T03:46:20;101747.13;;;18.39;47.13
70916;BME280;58557;50.982;-3.222;2023-10-08T03:48:44;101741.79;;;18.40;46.53
70916;BME280;58557;50.982;-3.222;2023-10-08T03:51:10;101736.07;;;17.77;47.95
70916;BME280;58557;50.982;-3.222;2023-10-08T03:53:36;101730.11;;;16.55;50.37
70916;BME280;58557;50.982;-3.222;2023-10-08T03:56:01;101738.29;;;18.56;48.05
70916;BME280;58557;50.982;-3.222;2023-10-08T03:58:27;101741.77;;;18.36;47.93
70916;BME280;58557;50.982;-3.222;2023-10-08T04:00:52;101737.28;;;17.79;49.11
70916;BME280;58557;50.982;-3.222;2023-10-08T04:03:17;101733.81;;;17.41;49.76
70916;BME280;58557;50.982;-3.222;2023-10-08T04:05:43;101733.85;;;17.67;48.99
70916;BME280;58557;50.982;-3.222;2023-10-08T04:08:08;101733.20;;;17.42;48.96
70916;BME280;58557;50.982;-3.222;2023-10-08T04:10:35;101732.16;;;15.93;51.73
70916;BME280;58557;50.982;-3.222;2023-10-08T04:12:58;101731.33;;;16.15;53.15
70916;BME280;58557;50.982;-3.222;2023-10-08T04:15:24;101729.88;;;16.93;51.49
70916;BME280;58557;50.982;-3.222;2023-10-08T04:17:49;101730.80;;;17.24;50.55
70916;BME280;58557;50.982;-3.222;2023-10-08T04:20:15;101731.42;;;17.10;50.38
70916;BME280;58557;50.982;-3.222;2023-10-08T04:22:40;101734.99;;;17.05;49.89
70916;BME280;58557;50.982;-3.222;2023-10-08T04:25:06;101735.26;;;17.25;49.11
70916;BME280;58557;50.982;-3.222;2023-10-08T04:27:31;101731.66;;;16.91;49.87
70916;BME280;58557;50.982;-3.222;2023-10-08T04:29:56;101735.06;;;17.26;49.19
70916;BME280;58557;50.982;-3.222;2023-10-08T04:32:21;101733.26;;;16.50;50.80
70916;BME280;58557;50.982;-3.222;2023-10-08T04:34:46;101731.82;;;14.03;56.98
70916;BME280;58557;50.982;-3.222;2023-10-08T04:37:11;101731.46;;;15.12;57.72
70916;BME280;58557;50.982;-3.222;2023-10-08T04:39:36;101730.34;;;13.61;62.48
70916;BME280;58557;50.982;-3.222;2023-10-08T04:42:03;101723.92;;;14.96;59.27
70916;BME280;58557;50.982;-3.222;2023-10-08T04:44:27;101720.52;;;15.96;56.24
70916;BME280;58557;50.982;-3.222;2023-10-08T04:46:53;101718.99;;;16.09;54.74
70916;BME280;58557;50.982;-3.222;2023-10-08T04:49:19;101717.19;;;16.27;53.36
70916;BME280;58557;50.982;-3.222;2023-10-08T04:51:44;101718.44;;;16.09;53.48
70916;BME280;58557;50.982;-3.222;2023-10-08T04:54:10;101714.83;;;15.47;55.47
70916;BME280;58557;50.982;-3.222;2023-10-08T04:56:35;101710.53;;;16.30;54.48
70916;BME280;58557;50.982;-3.222;2023-10-08T04:59:01;101709.66;;;16.49;53.71
70916;BME280;58557;50.982;-3.222;2023-10-08T05:01:28;101709.54;;;16.10;53.43
70916;BME280;58557;50.982;-3.222;2023-10-08T05:03:53;101709.52;;;15.98;54.77
70916;BME280;58557;50.982;-3.222;2023-10-08T05:06:17;101710.43;;;15.46;54.85
70916;BME280;58557;50.982;-3.222;2023-10-08T05:08:42;101711.70;;;15.41;56.07
70916;BME280;58557;50.982;-3.222;2023-10-08T05:11:08;101710.40;;;15.57;55.39
70916;BME280;58557;50.982;-3.222;2023-10-08T05:13:33;101703.09;;;16.76;52.28
70916;BME280;58557;50.982;-3.222;2023-10-08T05:15:59;101701.25;;;15.34;54.93
70916;BME280;58557;50.982;-3.222;2023-10-08T05:18:24;101692.88;;;16.43;52.65
70916;BME280;58557;50.982;-3.222;2023-10-08T05:20:50;101694.42;;;16.77;52.65
70916;BME280;58557;50.982;-3.222;2023-10-08T05:23:16;101692.37;;;16.52;51.18
70916;BME280;58557;50.982;-3.222;2023-10-08T05:25:42;101695.73;;;15.43;53.85
70916;BME280;58557;50.982;-3.222;2023-10-08T05:28:05;101697.09;;;16.22;52.08
70916;BME280;58557;50.982;-3.222;2023-10-08T05:30:31;101698.47;;;16.72;51.05
70916;BME280;58557;50.982;-3.222;2023-10-08T05:32:57;101697.82;;;16.51;51.41
70916;BME280;58557;50.982;-3.222;2023-10-08T05:35:22;101696.01;;;15.37;55.34
70916;BME280;58557;50.982;-3.222;2023-10-08T05:37:47;101692.21;;;15.35;55.64
70916;BME280;58557;50.982;-3.222;2023-10-08T05:40:13;101687.56;;;15.35;54.92
70916;BME280;58557;50.982;-3.222;2023-10-08T05:42:39;101681.76;;;16.16;53.28
70916;BME280;58557;50.982;-3.222;2023-10-08T05:45:04;101683.25;;;15.23;53.30
70916;BME280;58557;50.982;-3.222;2023-10-08T05:47:29;101682.05;;;17.17;49.52
70916;BME280;58557;50.982;-3.222;2023-10-08T05:49:55;101686.57;;;17.71;48.21
70916;BME280;58557;50.982;-3.222;2023-10-08T05:52:21;101690.21;;;16.57;50.83
70916;BME280;58557;50.982;-3.222;2023-10-08T05:54:46;101690.91;;;16.25;50.98
70916;BME280;58557;50.982;-3.222;2023-10-08T05:57:11;101688.30;;;16.34;50.76
70916;BME280;58557;50.982;-3.222;2023-10-08T05:59:37;101687.41;;;16.65;49.83
70916;BME280;58557;50.982;-3.222;2023-10-08T06:02:02;101685.91;;;16.51;49.51
70916;BME280;58557;50.982;-3.222;2023-10-08T06:04:27;101684.88;;;16.70;49.63
70916;BME280;58557;50.982;-3.222;2023-10-08T06:06:53;101686.65;;;16.83;49.47
70916;BME280;58557;50.982;-3.222;2023-10-08T06:09:18;101690.60;;;16.70;48.69
70916;BME280;58557;50.982;-3.222;2023-10-08T06:11:44;101692.17;;;17.17;48.54
70916;BME280;58557;50.982;-3.222;2023-10-08T06:14:10;101697.08;;;17.32;47.12
70916;BME280;58557;50.982;-3.222;2023-10-08T06:16:35;101700.39;;;16.80;48.33
70916;BME280;58557;50.982;-3.222;2023-10-08T06:19:01;101697.40;;;16.69;48.48
70916;BME280;58557;50.982;-3.222;2023-10-08T06:21:26;101696.24;;;16.57;48.70
70916;BME280;58557;50.982;-3.222;2023-10-08T06:23:52;101695.43;;;16.70;48.60
70916;BME280;58557;50.982;-3.222;2023-10-08T06:26:18;101701.01;;;16.75;48.70
70916;BME280;58557;50.982;-3.222;2023-10-08T06:28:44;101706.69;;;16.98;48.46
70916;BME280;58557;50.982;-3.222;2023-10-08T06:31:10;101700.58;;;16.55;48.92
70916;BME280;58557;50.982;-3.222;2023-10-08T06:33:34;101698.81;;;16.76;48.38
70916;BME280;58557;50.982;-3.222;2023-10-08T06:36:02;101694.53;;;16.43;48.33
70916;BME280;58557;50.982;-3.222;2023-10-08T06:38:26;101701.60;;;15.47;52.05
70916;BME280;58557;50.982;-3.222;2023-10-08T06:40:51;101705.94;;;16.55;49.73
70916;BME280;58557;50.982;-3.222;2023-10-08T06:43:16;101709.78;;;16.62;50.28
70916;BME280;58557;50.982;-3.222;2023-10-08T06:45:44;101714.64;;;15.07;52.23
70916;BME280;58557;50.982;-3.222;2023-10-08T06:48:08;101711.88;;;15.86;52.09
70916;BME280;58557;50.982;-3.222;2023-10-08T06:50:33;101710.22;;;16.21;50.30
70916;BME280;58557;50.982;-3.222;2023-10-08T06:52:59;101712.29;;;16.98;49.48
70916;BME280;58557;50.982;-3.222;2023-10-08T06:55:24;101708.80;;;16.88;49.39
70916;BME280;58557;50.982;-3.222;2023-10-08T06:57:49;101708.55;;;16.67;48.51
70916;BME280;58557;50.982;-3.222;2023-10-08T07:00:15;101708.56;;;17.18;48.30
70916;BME280;58557;50.982;-3.222;2023-10-08T07:02:40;101704.65;;;17.26;47.11
70916;BME280;58557;50.982;-3.222;2023-10-08T07:05:06;101704.83;;;17.82;46.27
70916;BME280;58557;50.982;-3.222;2023-10-08T07:07:31;101704.35;;;17.82;45.37
70916;BME280;58557;50.982;-3.222;2023-10-08T07:09:56;101705.37;;;17.55;46.24
70916;BME280;58557;50.982;-3.222;2023-10-08T07:12:22;101709.73;;;17.08;48.73
70916;BME280;58557;50.982;-3.222;2023-10-08T07:14:47;101707.43;;;17.00;48.53
70916;BME280;58557;50.982;-3.222;2023-10-08T07:17:13;101706.72;;;17.77;48.25
70916;BME280;58557;50.982;-3.222;2023-10-08T07:19:38;101707.58;;;17.40;50.16
70916;BME280;58557;50.982;-3.222;2023-10-08T07:22:04;101712.38;;;15.84;50.00
70916;BME280;58557;50.982;-3.222;2023-10-08T07:24:29;101720.10;;;17.89;48.24
70916;BME280;58557;50.982;-3.222;2023-10-08T07:26:54;101713.53;;;16.70;48.73
70916;BME280;58557;50.982;-3.222;2023-10-08T07:29:20;101711.50;;;16.60;49.10
70916;BME280;58557;50.982;-3.222;2023-10-08T07:31:46;101714.18;;;16.30;49.05
70916;BME280;58557;50.982;-3.222;2023-10-08T07:34:10;101717.06;;;15.73;50.41
70916;BME280;58557;50.982;-3.222;2023-10-08T07:36:36;101716.90;;;16.13;49.77
70916;BME280;58557;50.982;-3.222;2023-10-08T07:39:01;101720.19;;;18.57;45.70
70916;BME280;58557;50.982;-3.222;2023-10-08T07:41:26;101721.72;;;18.70;45.46
70916;BME280;58557;50.982;-3.222;2023-10-08T07:43:52;101719.78;;;19.58;44.25
70916;BME280;58557;50.982;-3.222;2023-10-08T07:46:17;101719.63;;;19.75;42.51
70916;BME280;58557;50.982;-3.222;2023-10-08T07:48:42;101721.04;;;19.25;44.17
70916;BME280;58557;50.982;-3.222;2023-10-08T07:51:07;101721.35;;;19.18;43.64
70916;BME280;58557;50.982;-3.222;2023-10-08T07:53:33;101717.99;;;20.84;41.53
70916;BME280;58557;50.982;-3.222;2023-10-08T07:56:00;101720.10;;;18.22;44.22
70916;BME280;58557;50.982;-3.222;2023-10-08T07:58:24;101717.14;;;19.87;41.90
70916;BME280;58557;50.982;-3.222;2023-10-08T08:00:50;101722.57;;;19.13;43.34
70916;BME280;58557;50.982;-3.222;2023-10-08T08:03:15;101725.14;;;20.59;40.46
70916;BME280;58557;50.982;-3.222;2023-10-08T08:05:41;101726.84;;;21.34;39.82
70916;BME280;58557;50.982;-3.222;2023-10-08T08:08:06;101735.91;;;19.32;43.66
70916;BME280;58557;50.982;-3.222;2023-10-08T08:10:32;101739.09;;;19.05;43.29
70916;BME280;58557;50.982;-3.222;2023-10-08T08:12:57;101740.10;;;20.21;42.92
70916;BME280;58557;50.982;-3.222;2023-10-08T08:15:22;101743.05;;;22.14;40.54
70916;BME280;58557;50.982;-3.222;2023-10-08T08:17:48;101743.40;;;22.44;38.22
70916;BME280;58557;50.982;-3.222;2023-10-08T08:20:13;101743.99;;;21.37;38.79
70916;BME280;58557;50.982;-3.222;2023-10-08T08:22:39;101753.86;;;22.13;38.14
70916;BME280;58557;50.982;-3.222;2023-10-08T08:25:04;101759.90;;;21.04;39.58
70916;BME280;58557;50.982;-3.222;2023-10-08T08:27:30;101765.21;;;22.31;38.37
70916;BME280;58557;50.982;-3.222;2023-10-08T08:29:57;101769.35;;;22.49;39.23
70916;BME280;58557;50.982;-3.222;2023-10-08T08:32:20;101776.46;;;23.23;38.36
70916;BME280;58557;50.982;-3.222;2023-10-08T08:34:46;101781.18;;;23.16;38.19
70916;BME280;58557;50.982;-3.222;2023-10-08T08:37:12;101783.86;;;22.74;37.77
70916;BME280;58557;50.982;-3.222;2023-10-08T08:39:37;101780.13;;;21.97;40.05
70916;BME280;58557;50.982;-3.222;2023-10-08T08:42:03;101778.99;;;23.45;38.49
70916;BME280;58557;50.982;-3.222;2023-10-08T08:44:29;101774.25;;;24.39;35.75
70916;BME280;58557;50.982;-3.222;2023-10-08T08:46:53;101779.56;;;23.14;37.48
70916;BME280;58557;50.982;-3.222;2023-10-08T08:49:19;101776.99;;;23.16;37.20
70916;BME280;58557;50.982;-3.222;2023-10-08T08:51:44;101777.63;;;25.00;34.73
70916;BME280;58557;50.982;-3.222;2023-10-08T08:54:10;101778.52;;;25.88;33.51
70916;BME280;58557;50.982;-3.222;2023-10-08T08:56:38;101781.95;;;25.58;34.63
70916;BME280;58557;50.982;-3.222;2023-10-08T08:58:55;101779.83;;;24.20;36.42
70916;BME280;58557;50.982;-3.222;2023-10-08T09:01:20;101778.93;;;24.72;37.60
70916;BME280;58557;50.982;-3.222;2023-10-08T09:03:46;101782.94;;;24.23;38.81
70916;BME280;58557;50.982;-3.222;2023-10-08T09:06:11;101780.08;;;24.13;39.34
70916;BME280;58557;50.982;-3.222;2023-10-08T09:08:38;101783.31;;;23.81;39.04
70916;BME280;58557;50.982;-3.222;2023-10-08T09:11:03;101786.16;;;23.77;38.44
70916;BME280;58557;50.982;-3.222;2023-10-08T09:13:28;101787.00;;;22.85;38.65
70916;BME280;58557;50.982;-3.222;2023-10-08T09:16:02;101779.42;;;21.11;42.96
70916;BME280;58557;50.982;-3.222;2023-10-08T09:18:21;101778.65;;;23.55;38.97
70916;BME280;58557;50.982;-3.222;2023-10-08T09:20:45;101774.30;;;21.57;42.06
70916;BME280;58557;50.982;-3.222;2023-10-08T09:23:11;101779.89;;;21.57;42.93
70916;BME280;58557;50.982;-3.222;2023-10-08T09:25:35;101775.49;;;22.15;43.74
70916;BME280;58557;50.982;-3.222;2023-10-08T09:28:02;101778.75;;;23.00;41.09
70916;BME280;58557;50.982;-3.222;2023-10-08T09:30:28;101781.49;;;23.55;40.78
70916;BME280;58557;50.982;-3.222;2023-10-08T09:32:52;101784.37;;;24.32;38.73
70916;BME280;58557;50.982;-3.222;2023-10-08T09:35:18;101784.60;;;23.02;40.41
70916;BME280;58557;50.982;-3.222;2023-10-08T09:37:44;101788.32;;;24.29;38.54
70916;BME280;58557;50.982;-3.222;2023-10-08T09:40:11;101792.12;;;22.37;41.76
70916;BME280;58557;50.982;-3.222;2023-10-08T09:42:34;101782.14;;;24.18;38.00
70916;BME280;58557;50.982;-3.222;2023-10-08T09:44:59;101784.91;;;25.34;37.95
70916;BME280;58557;50.982;-3.222;2023-10-08T09:47:26;101780.53;;;24.32;39.73
70916;BME280;58557;50.982;-3.222;2023-10-08T09:49:56;101785.32;;;25.63;36.57
70916;BME280;58557;50.982;-3.222;2023-10-08T09:52:19;101788.52;;;23.01;41.28
70916;BME280;58557;50.982;-3.222;2023-10-08T09:54:44;101786.31;;;25.39;38.62
70916;BME280;58557;50.982;-3.222;2023-10-08T09:57:07;101792.43;;;25.75;38.69
70916;BME280;58557;50.982;-3.222;2023-10-08T09:59:33;101788.08;;;25.16;38.02
70916;BME280;58557;50.982;-3.222;2023-10-08T10:01:58;101789.50;;;26.63;37.07
70916;BME280;58557;50.982;-3.222;2023-10-08T10:04:24;101792.71;;;25.62;37.06
70916;BME280;58557;50.982;-3.222;2023-10-08T10:06:49;101794.03;;;25.78;38.63
70916;BME280;58557;50.982;-3.222;2023-10-08T10:09:20;101798.98;;;26.43;35.61
70916;BME280;58557;50.982;-3.222;2023-10-08T10:11:40;101802.47;;;26.34;37.31
70916;BME280;58557;50.982;-3.222;2023-10-08T10:14:05;101799.20;;;27.44;34.62
70916;BME280;58557;50.982;-3.222;2023-10-08T10:16:31;101803.26;;;27.78;33.93
70916;BME280;58557;50.982;-3.222;2023-10-08T10:18:57;101799.25;;;26.74;36.18
70916;BME280;58557;50.982;-3.222;2023-10-08T10:21:27;101793.84;;;26.55;37.06
70916;BME280;58557;50.982;-3.222;2023-10-08T10:23:48;101791.66;;;26.58;37.64
70916;BME280;58557;50.982;-3.222;2023-10-08T10:26:25;101798.40;;;27.46;36.33
70916;BME280;58557;50.982;-3.222;2023-10-08T10:28:43;101795.01;;;26.98;35.95
70916;BME280;58557;50.982;-3.222;2023-10-08T10:31:04;101797.43;;;26.11;36.68
70916;BME280;58557;50.982;-3.222;2023-10-08T10:33:31;101795.52;;;26.97;36.72
70916;BME280;58557;50.982;-3.222;2023-10-08T10:35:54;101800.13;;;27.40;34.96
70916;BME280;58557;50.982;-3.222;2023-10-08T10:38:20;101796.37;;;27.22;34.98
70916;BME280;58557;50.982;-3.222;2023-10-08T10:40:48;101798.10;;;26.62;36.31
70916;BME280;58557;50.982;-3.222;2023-10-08T10:43:10;101792.65;;;26.35;36.14
70916;BME280;58557;50.982;-3.222;2023-10-08T10:45:35;101791.24;;;27.63;35.12
70916;BME280;58557;50.982;-3.222;2023-10-08T10:48:01;101790.74;;;27.89;35.07
70916;BME280;58557;50.982;-3.222;2023-10-08T10:50:26;101781.80;;;26.40;36.16
70916;BME280;58557;50.982;-3.222;2023-10-08T10:52:51;101776.20;;;26.51;36.64
70916;BME280;58557;50.982;-3.222;2023-10-08T10:55:17;101775.52;;;26.02;37.82
70916;BME280;58557;50.982;-3.222;2023-10-08T10:57:43;101776.46;;;26.36;38.36
70916;BME280;58557;50.982;-3.222;2023-10-08T11:00:10;101776.69;;;26.16;37.17
70916;BME280;58557;50.982;-3.222;2023-10-08T11:02:33;101772.44;;;26.86;37.18
70916;BME280;58557;50.982;-3.222;2023-10-08T11:04:58;101772.35;;;26.33;37.71
70916;BME280;58557;50.982;-3.222;2023-10-08T11:07:25;101773.74;;;27.24;36.17
70916;BME280;58557;50.982;-3.222;2023-10-08T11:09:50;101770.46;;;25.35;38.57
70916;BME280;58557;50.982;-3.222;2023-10-08T11:12:20;101773.83;;;26.35;38.42
70916;BME280;58557;50.982;-3.222;2023-10-08T11:14:41;101778.55;;;25.66;38.65
70916;BME280;58557;50.982;-3.222;2023-10-08T11:17:11;101783.17;;;25.03;40.54
70916;BME280;58557;50.982;-3.222;2023-10-08T11:19:32;101784.56;;;25.23;40.66
70916;BME280;58557;50.982;-3.222;2023-10-08T11:21:57;101784.09;;;24.02;43.71
70916;BME280;58557;50.982;-3.222;2023-10-08T11:24:28;101791.32;;;23.56;43.60
70916;BME280;58557;50.982;-3.222;2023-10-08T11:26:47;101790.28;;;24.57;41.98
70916;BME280;58557;50.982;-3.222;2023-10-08T11:29:13;101796.75;;;25.72;41.73
70916;BME280;58557;50.982;-3.222;2023-10-08T11:31:38;101796.85;;;25.06;42.23
70916;BME280;58557;50.982;-3.222;2023-10-08T11:34:04;101790.26;;;25.81;40.53
70916;BME280;58557;50.982;-3.222;2023-10-08T11:36:29;101786.61;;;25.26;40.45
70916;BME280;58557;50.982;-3.222;2023-10-08T11:38:55;101787.33;;;25.93;40.40
70916;BME280;58557;50.982;-3.222;2023-10-08T11:41:20;101783.49;;;26.04;40.57
70916;BME280;58557;50.982;-3.222;2023-10-08T11:43:46;101777.57;;;26.16;39.82
70916;BME280;58557;50.982;-3.222;2023-10-08T11:46:11;101769.45;;;25.96;39.84
70916;BME280;58557;50.982;-3.222;2023-10-08T11:48:37;101768.86;;;26.03;40.13
70916;BME280;58557;50.982;-3.222;2023-10-08T11:51:02;101770.19;;;25.74;41.97
70916;BME280;58557;50.982;-3.222;2023-10-08T11:53:27;101762.24;;;24.76;44.49
70916;BME280;58557;50.982;-3.222;2023-10-08T11:55:53;101763.85;;;26.70;39.09
70916;BME280;58557;50.982;-3.222;2023-10-08T11:58:18;101766.43;;;25.84;39.89
70916;BME280;58557;50.982;-3.222;2023-10-08T12:00:44;101767.79;;;25.15;41.24
70916;BME280;58557;50.982;-3.222;2023-10-08T12:03:10;101767.49;;;25.42;41.18
70916;BME280;58557;50.982;-3.222;2023-10-08T12:05:34;101764.42;;;26.13;38.46
70916;BME280;58557;50.982;-3.222;2023-10-08T12:08:00;101762.48;;;26.14;38.62
70916;BME280;58557;50.982;-3.222;2023-10-08T12:10:30;101760.23;;;26.53;38.60
70916;BME280;58557;50.982;-3.222;2023-10-08T12:12:51;101756.89;;;27.20;39.37
70916;BME280;58557;50.982;-3.222;2023-10-08T12:15:16;101757.23;;;24.81;40.79
70916;BME280;58557;50.982;-3.222;2023-10-08T12:17:47;101753.53;;;25.08;42.13
70916;BME280;58557;50.982;-3.222;2023-10-08T12:20:08;101751.75;;;25.16;39.99
70916;BME280;58557;50.982;-3.222;2023-10-08T12:22:33;101749.53;;;25.97;39.54
70916;BME280;58557;50.982;-3.222;2023-10-08T12:24:58;101743.67;;;26.89;37.69
70916;BME280;58557;50.982;-3.222;2023-10-08T12:27:23;101738.57;;;25.21;39.65
70916;BME280;58557;50.982;-3.222;2023-10-08T12:29:49;101730.35;;;25.55;40.64